Time;durP1;ratioP1;P1;durP2;ratioP2;P2;SDS_P1;SDS_P2;PMS_P1;PMS_P2;Temp;Humidity;BMP_temperature;BMP_pressure;BME280_temperature;BME280_humidity;BME280_pressure;Samples;Min_cycle;Max_cycle;Signal;HPM_P1;HPM_P2
2024/04/10 00:02:11;;;;;;;;;;;;;;;;;;5333806;26;19944;-71
2024/04/10 00:04:37;;;;;;;;;;;;;;;;;;5334341;26;19965;-71
2024/04/10 00:07:03;;;;;;;;;;;;;;;;;;5334012;26;19940;-68
2024/04/10 00:09:30;;;;;;;;;;;;;;;;;;5329691;26;19945;-70
2024/04/10 00:11:56;;;;;;;;;;;;;;;;;;5358500;26;20032;-69
2024/04/10 00:14:21;;;;;;;;;;;;;;;;;;5333862;26;19937;-69
2024/04/10 00:16:52;;;;;;;;;;;;;;;;;;5334170;26;19941;-68
2024/04/10 00:19:20;;;;;;;;;;;;;;;;;;5327056;26;20011;-69
2024/04/10 00:24:37;;;;;;;;;;;;;;;;;;5302514;26;19944;-69
2024/04/10 00:27:33;;;;;;;;;;;;;;;;;;5338209;26;19930;-69
2024/04/10 00:29:58;;;;;;;;;;;;;;;;;;5335890;26;20421;-68
2024/04/10 00:32:25;;;;;;;;;;;;;;;;;;5309967;26;19937;-67
2024/04/10 00:34:51;;;;;;;;;;;;;;;;;;5302177;26;20412;-72
2024/04/10 00:44:00;;;;;;;;;;;;;;;;;;5299171;26;20608;-69
2024/04/10 00:46:27;;;;;;;;;;;;;;;;;;5328805;26;19937;-66
2024/04/10 00:48:55;;;;;;;;;;;;;;;;;;5339631;26;19929;-70
2024/04/10 00:51:20;;;;;;;;;;;;;;;;;;5331068;26;20075;-70
2024/04/10 00:53:46;;;;;;;;;;;;;;;;;;5334632;26;19960;-67
2024/04/10 00:56:11;;;;;;;;;;;;;;;;;;5328313;26;22116;-68
2024/04/10 00:58:36;;;;;;;;;;;;;;;;;;5312872;26;19941;-70
2024/04/10 01:01:04;;;;;;;;;;;;;;;;;;5335797;26;19937;-68
2024/04/10 01:03:31;;;;;;;;;;;;;;;;;;5331905;26;20441;-72
2024/04/10 01:05:58;;;;;;;;;;;;;;;;;;5332960;26;19940;-67
2024/04/10 01:08:24;;;;;;;;;;;;;;;;;;5334960;26;20797;-72
2024/04/10 01:10:52;;;;;;;;;;;;;;;;;;5334866;26;20758;-69
2024/04/10 01:13:20;;;;;;;;;;;;;;;;;;5328749;26;20262;-70
2024/04/10 01:15:45;;;;;;;;;;;;;;;;;;5328075;26;19987;-74
2024/04/10 01:18:10;;;;;;;;;;;;;;;;;;5337718;26;19934;-72
2024/04/10 01:20:36;;;;;;;;;;;;;;;;;;5326529;26;19937;-72
2024/04/10 01:23:03;;;;;;;;;;;;;;;;;;5335079;26;19948;-73
2024/04/10 01:25:29;;;;;;;;;;;;;;;;;;5333890;26;19938;-74
2024/04/10 01:27:54;;;;;;;;;;;;;;;;;;5332068;26;19954;-71
2024/04/10 01:30:20;;;;;;;;;;;;;;;;;;5316569;26;20002;-71
2024/04/10 01:32:45;;;;;;;;;;;;;;;;;;5360816;26;19944;-70
2024/04/10 01:35:13;;;;;;;;;;;;;;;;;;5332415;26;19941;-70
2024/04/10 01:37:38;;;;;;;;;;;;;;;;;;5333033;26;20001;-74
2024/04/10 01:40:03;;;;;;;;;;;;;;;;;;5335642;26;20278;-71
2024/04/10 01:42:29;;;;;;;;;;;;;;;;;;5328289;26;19931;-70
2024/04/10 01:44:57;;;;;;;;;;;;;;;;;;5327107;26;19930;-70
2024/04/10 01:47:25;;;;;;;;;;;;;;;;;;5334575;26;20490;-70
2024/04/10 01:49:52;;;;;;;;;;;;;;;;;;5331114;26;19929;-71
2024/04/10 01:52:18;;;;;;;;;;;;;;;;;;5311482;26;20790;-72
2024/04/10 01:54:45;;;;;;;;;;;;;;;;;;5338834;26;19955;-72
2024/04/10 01:57:11;;;;;;;;;;;;;;;;;;5333168;26;19938;-71
2024/04/10 01:59:39;;;;;;;;;;;;;;;;;;5326036;26;19930;-70
2024/04/10 02:02:04;;;;;;;;;;;;;;;;;;5310529;26;20008;-68
2024/04/10 02:04:29;;;;;;;;;;;;;;;;;;5332587;26;19937;-73
2024/04/10 02:06:55;;;;;;;;;;;;;;;;;;5329484;26;19945;-72
2024/04/10 02:09:20;;;;;;;;;;;;;;;;;;5332884;26;19945;-71
2024/04/10 02:11:45;;;;;;;;;;;;;;;;;;5357925;26;20006;-72
2024/04/10 02:14:13;;;;;;;;;;;;;;;;;;5327132;26;20065;-69
2024/04/10 02:16:40;;;;;;;;;;;;;;;;;;5331341;26;19993;-70
2024/04/10 02:19:08;;;;;;;;;;;;;;;;;;5353814;26;19938;-69
2024/04/10 02:21:34;;;;;;;;;;;;;;;;;;5330409;26;20713;-72
2024/04/10 02:24:02;;;;;;;;;;;;;;;;;;5328414;26;20310;-69
2024/04/10 02:26:27;;;;;;;;;;;;;;;;;;5330696;26;19937;-69
2024/04/10 02:28:55;;;;;;;;;;;;;;;;;;5327317;26;20370;-68
2024/04/10 02:31:20;;;;;;;;;;;;;;;;;;5326362;26;19996;-70
2024/04/10 02:33:50;;;;;;;;;;;;;;;;;;5333676;26;19941;-70
2024/04/10 02:36:16;;;;;;;;;;;;;;;;;;5331839;26;19930;-68
2024/04/10 02:38:41;;;;;;;;;;;;;;;;;;5332714;26;19941;-70
2024/04/10 02:41:09;;;;;;;;;;;;;;;;;;5335886;26;20507;-70
2024/04/10 02:43:36;;;;;;;;;;;;;;;;;;5332277;26;20030;-68
2024/04/10 02:46:08;;;;;;;;;;;;;;;;;;5330908;26;19952;-68
2024/04/10 02:48:36;;;;;;;;;;;;;;;;;;5331686;26;20118;-68
2024/04/10 02:51:01;;;;;;;;;;;;;;;;;;5355039;26;20245;-71
2024/04/10 02:53:30;;;;;;;;;;;;;;;;;;5332054;26;19953;-69
2024/04/10 02:55:57;;;;;;;;;;;;;;;;;;5337250;26;19957;-69
2024/04/10 02:58:23;;;;;;;;;;;;;;;;;;5333636;26;20158;-69
2024/04/10 03:00:48;;;;;;;;;;;;;;;;;;5330826;26;19938;-68
2024/04/10 03:03:13;;;;;;;;;;;;;;;;;;5305335;26;20089;-70
2024/04/10 03:05:38;;;;;;;;;;;;;;;;;;5336291;26;19937;-68
2024/04/10 03:08:05;;;;;;;;;;;;;;;;;;5334046;26;19930;-68
2024/04/10 03:10:32;;;;;;;;;;;;;;;;;;5338288;26;19930;-68
2024/04/10 03:12:57;;;;;;;;;;;;;;;;;;5330057;26;19945;-68
2024/04/10 03:15:23;;;;;;;;;;;;;;;;;;5334312;26;20817;-70
2024/04/10 03:17:48;;;;;;;;;;;;;;;;;;5344114;26;19949;-68
2024/04/10 03:20:17;;;;;;;;;;;;;;;;;;5334197;26;19942;-68
2024/04/10 03:22:42;;;;;;;;;;;;;;;;;;5331171;26;19944;-68
2024/04/10 03:25:12;;;;;;;;;;;;;;;;;;5335064;26;20373;-69
2024/04/10 03:27:43;;;;;;;;;;;;;;;;;;5329260;26;19937;-67
2024/04/10 03:30:11;;;;;;;;;;;;;;;;;;5335327;26;19934;-67
2024/04/10 03:32:36;;;;;;;;;;;;;;;;;;5310891;26;20039;-67
2024/04/10 03:35:03;;;;;;;;;;;;;;;;;;5333232;26;20374;-68
2024/04/10 03:37:31;;;;;;;;;;;;;;;;;;5333780;26;19972;-70
2024/04/10 03:39:59;;;;;;;;;;;;;;;;;;5339332;26;19936;-67
2024/04/10 03:42:27;;;;;;;;;;;;;;;;;;5333890;26;19938;-69
2024/04/10 03:44:57;;;;;;;;;;;;;;;;;;5337457;26;19941;-72
2024/04/10 03:47:23;;;;;;;;;;;;;;;;;;5334569;26;19948;-68
2024/04/10 03:49:48;;;;;;;;;;;;;;;;;;5333733;26;19938;-67
2024/04/10 03:52:13;;;;;;;;;;;;;;;;;;5305608;26;20277;-67
2024/04/10 03:54:44;;;;;;;;;;;;;;;;;;5343088;26;19954;-67
2024/04/10 03:57:10;;;;;;;;;;;;;;;;;;5333445;26;19930;-69
2024/04/10 03:59:35;;;;;;;;;;;;;;;;;;5343066;26;19944;-67
2024/04/10 04:02:09;;;;;;;;;;;;;;;;;;5301785;26;19938;-67
2024/04/10 04:04:35;;;;;;;;;;;;;;;;;;5335764;26;19936;-67
2024/04/10 04:07:00;;;;;;;;;;;;;;;;;;5334032;26;19941;-67
2024/04/10 04:09:25;;;;;;;;;;;;;;;;;;5334655;26;19938;-69
2024/04/10 04:11:50;;;;;;;;;;;;;;;;;;5314861;26;20334;-66
2024/04/10 04:14:16;;;;;;;;;;;;;;;;;;5302438;26;19949;-67
2024/04/10 04:16:46;;;;;;;;;;;;;;;;;;5330645;26;19946;-68
2024/04/10 04:19:14;;;;;;;;;;;;;;;;;;5331371;26;19930;-67
2024/04/10 04:21:42;;;;;;;;;;;;;;;;;;5332357;26;20687;-68
2024/04/10 04:24:10;;;;;;;;;;;;;;;;;;5344954;26;20755;-68
2024/04/10 04:26:37;;;;;;;;;;;;;;;;;;5335297;26;19985;-68
2024/04/10 04:29:08;;;;;;;;;;;;;;;;;;5333107;26;19941;-67
2024/04/10 04:31:38;;;;;;;;;;;;;;;;;;5331492;26;19941;-67
2024/04/10 04:34:12;;;;;;;;;;;;;;;;;;5331549;26;20755;-68
2024/04/10 04:36:40;;;;;;;;;;;;;;;;;;5338419;26;19930;-70
2024/04/10 04:39:07;;;;;;;;;;;;;;;;;;5333895;26;19940;-68
2024/04/10 04:41:35;;;;;;;;;;;;;;;;;;5331980;26;19929;-68
2024/04/10 04:44:01;;;;;;;;;;;;;;;;;;5331422;26;20004;-68
2024/04/10 04:46:26;;;;;;;;;;;;;;;;;;5336249;26;19973;-68
2024/04/10 04:48:51;;;;;;;;;;;;;;;;;;5334466;26;19930;-70
2024/04/10 04:51:16;;;;;;;;;;;;;;;;;;5332280;26;19941;-68
2024/04/10 04:53:42;;;;;;;;;;;;;;;;;;5333327;26;21028;-68
2024/04/10 04:56:07;;;;;;;;;;;;;;;;;;5334833;26;19978;-68
2024/04/10 04:58:32;;;;;;;;;;;;;;;;;;5335528;26;19937;-70
2024/04/10 05:01:00;;;;;;;;;;;;;;;;;;5332269;26;19930;-67
2024/04/10 05:06:12;;;;;;;;;;;;;;;;;;5334205;26;19934;-67
2024/04/10 05:08:37;;;;;;;;;;;;;;;;;;5330219;26;19937;-69
2024/04/10 05:11:03;;;;;;;;;;;;;;;;;;5299867;26;19938;-68
2024/04/10 05:13:28;;;;;;;;;;;;;;;;;;5332133;26;20262;-67
2024/04/10 05:15:58;;;;;;;;;;;;;;;;;;5358702;26;20246;-68
2024/04/10 05:18:27;;;;;;;;;;;;;;;;;;5332541;26;20133;-68
2024/04/10 05:20:52;;;;;;;;;;;;;;;;;;5310067;26;19941;-67
2024/04/10 05:23:20;;;;;;;;;;;;;;;;;;5329881;26;19945;-68
2024/04/10 05:25:48;;;;;;;;;;;;;;;;;;5333665;26;20339;-68
2024/04/10 05:28:14;;;;;;;;;;;;;;;;;;5332069;26;19938;-67
2024/04/10 05:30:42;;;;;;;;;;;;;;;;;;5334182;26;20020;-67
2024/04/10 05:33:07;;;;;;;;;;;;;;;;;;5336726;26;20388;-67
2024/04/10 05:35:35;;;;;;;;;;;;;;;;;;5332050;26;19967;-67
2024/04/10 05:38:00;;;;;;;;;;;;;;;;;;5329764;26;19990;-67
2024/04/10 05:40:28;;;;;;;;;;;;;;;;;;5335113;26;20004;-67
2024/04/10 05:42:53;;;;;;;;;;;;;;;;;;5329783;26;19934;-67
2024/04/10 05:45:18;;;;;;;;;;;;;;;;;;5332410;26;20170;-66
2024/04/10 05:47:46;;;;;;;;;;;;;;;;;;5335213;26;19930;-68
2024/04/10 05:50:11;;;;;;;;;;;;;;;;;;5359657;26;20305;-68
2024/04/10 05:52:39;;;;;;;;;;;;;;;;;;5338901;26;19941;-68
2024/04/10 05:55:05;;;;;;;;;;;;;;;;;;5334078;26;20137;-67
2024/04/10 05:57:30;;;;;;;;;;;;;;;;;;5265468;26;19947;-67
2024/04/10 05:59:58;;;;;;;;;;;;;;;;;;5264297;27;19950;-67
2024/04/10 06:02:24;;;;;;;;;;;;;;;;;;5234857;27;19931;-67
2024/04/10 06:04:49;;;;;;;;;;;;;;;;;;5260956;27;20292;-66
2024/04/10 06:07:19;;;;;;;;;;;;;;;;;;5265634;27;19931;-66
2024/04/10 06:09:44;;;;;;;;;;;;;;;;;;5263356;27;20059;-68
2024/04/10 06:12:10;;;;;;;;;;;;;;;;;;5243806;27;20339;-67
2024/04/10 06:14:35;;;;;;;;;;;;;;;;;;5245270;27;19931;-67
2024/04/10 06:17:00;;;;;;;;;;;;;;;;;;5263483;27;19945;-66
2024/04/10 06:19:26;;;;;;;;;;;;;;;;;;5271634;27;19938;-67
2024/04/10 06:21:51;;;;;;;;;;;;;;;;;;5264237;26;20262;-67
2024/04/10 06:24:21;;;;;;;;;;;;;;;;;;5262295;26;19931;-68
2024/04/10 06:26:49;;;;;;;;;;;;;;;;;;5262970;27;19935;-69
2024/04/10 06:29:14;;;;;;;;;;;;;;;;;;5261745;27;20029;-68
2024/04/10 06:31:41;;;;;;;;;;;;;;;;;;5268735;27;20520;-68
2024/04/10 06:34:07;;;;;;;;;;;;;;;;;;5263178;27;19943;-69
2024/04/10 06:36:34;;;;;;;;;;;;;;;;;;5275218;27;20255;-68
2024/04/10 06:39:00;;;;;;;;;;;;;;;;;;5266250;27;21997;-69
2024/04/10 06:41:30;;;;;;;;;;;;;;;;;;5292260;26;20351;-68
2024/04/10 06:43:58;;;;;;;;;;;;;;;;;;5268320;27;19931;-68
2024/04/10 06:46:28;;;;;;;;;;;;;;;;;;5267354;26;19938;-68
2024/04/10 06:48:56;;;;;;;;;;;;;;;;;;5260114;27;20375;-68
2024/04/10 06:51:23;;;;;;;;;;;;;;;;;;5266353;27;19938;-68
2024/04/10 06:53:48;;;;;;;;;;;;;;;;;;5269074;27;19939;-68
2024/04/10 06:56:16;;;;;;;;;;;;;;;;;;5299449;26;20414;-69
2024/04/10 06:58:44;;;;;;;;;;;;;;;;;;5337099;26;19995;-69
2024/04/10 07:01:12;;;;;;;;;;;;;;;;;;5337440;26;20608;-68
2024/04/10 07:03:37;;;;;;;;;;;;;;;;;;5332442;26;19930;-69
2024/04/10 07:06:03;;;;;;;;;;;;;;;;;;5347881;26;19985;-70
2024/04/10 07:08:28;;;;;;;;;;;;;;;;;;5334493;26;22136;-68
2024/04/10 07:10:56;;;;;;;;;;;;;;;;;;5336133;26;20053;-70
2024/04/10 07:13:21;;;;;;;;;;;;;;;;;;5338990;26;19930;-70
2024/04/10 07:15:49;;;;;;;;;;;;;;;;;;5335472;26;19958;-70
2024/04/10 07:18:14;;;;;;;;;;;;;;;;;;5333820;26;19944;-69
2024/04/10 07:20:41;;;;;;;;;;;;;;;;;;5327927;26;19956;-72
2024/04/10 07:23:09;;;;;;;;;;;;;;;;;;5337475;26;19937;-70
2024/04/10 07:25:36;;;;;;;;;;;;;;;;;;5330926;26;20283;-70
2024/04/10 07:28:01;;;;;;;;;;;;;;;;;;5338625;26;19995;-71
2024/04/10 07:30:26;;;;;;;;;;;;;;;;;;5331749;26;19938;-70
2024/04/10 07:32:51;;;;;;;;;;;;;;;;;;5318105;26;19937;-68
2024/04/10 07:35:19;;;;;;;;;;;;;;;;;;5331291;26;20645;-69
2024/04/10 07:37:45;;;;;;;;;;;;;;;;;;5332872;26;19941;-69
2024/04/10 07:40:15;;;;;;;;;;;;;;;;;;5336664;26;19998;-69
2024/04/10 07:42:40;;;;;;;;;;;;;;;;;;5362733;26;20027;-69
2024/04/10 07:45:06;;;;;;;;;;;;;;;;;;5333630;26;19938;-66
2024/04/10 07:47:31;;;;;;;;;;;;;;;;;;5327510;26;19999;-67
2024/04/10 07:49:56;;;;;;;;;;;;;;;;;;5334075;26;20295;-68
2024/04/10 07:52:21;;;;;;;;;;;;;;;;;;5330629;26;20037;-68
2024/04/10 07:54:47;;;;;;;;;;;;;;;;;;5340883;26;20107;-69
2024/04/10 07:57:15;;;;;;;;;;;;;;;;;;5336143;26;19945;-69
2024/04/10 07:59:43;;;;;;;;;;;;;;;;;;5331556;26;19938;-68
2024/04/10 08:02:08;;;;;;;;;;;;;;;;;;5333354;26;19945;-68
2024/04/10 08:04:34;;;;;;;;;;;;;;;;;;5331267;26;20328;-72
2024/04/10 08:07:02;;;;;;;;;;;;;;;;;;5303321;26;20324;-68
2024/04/10 08:09:31;;;;;;;;;;;;;;;;;;5334502;26;19938;-68
2024/04/10 08:11:56;;;;;;;;;;;;;;;;;;5334885;26;19944;-72
2024/04/10 08:14:21;;;;;;;;;;;;;;;;;;5333704;26;22531;-70
2024/04/10 08:16:49;;;;;;;;;;;;;;;;;;5332158;26;19930;-73
2024/04/10 08:19:15;;;;;;;;;;;;;;;;;;5335686;26;19942;-69
2024/04/10 08:21:41;;;;;;;;;;;;;;;;;;5332785;26;20008;-69
2024/04/10 08:24:07;;;;;;;;;;;;;;;;;;5326138;26;19937;-71
2024/04/10 08:26:33;;;;;;;;;;;;;;;;;;5310310;26;19976;-73
2024/04/10 08:28:59;;;;;;;;;;;;;;;;;;5314596;26;19958;-73
2024/04/10 08:31:24;;;;;;;;;;;;;;;;;;5334677;26;20728;-68
2024/04/10 08:33:50;;;;;;;;;;;;;;;;;;5332862;26;19945;-68
2024/04/10 08:36:18;;;;;;;;;;;;;;;;;;5329656;26;19930;-71
2024/04/10 08:38:43;;;;;;;;;;;;;;;;;;5331432;26;19946;-70
2024/04/10 08:41:11;;;;;;;;;;;;;;;;;;5331201;26;22429;-69
2024/04/10 08:43:36;;;;;;;;;;;;;;;;;;5330369;26;20109;-71
2024/04/10 08:46:01;;;;;;;;;;;;;;;;;;5327991;26;19962;-71
2024/04/10 08:48:26;;;;;;;;;;;;;;;;;;5332965;26;19996;-69
2024/04/10 08:50:55;;;;;;;;;;;;;;;;;;5330366;26;20378;-70
2024/04/10 08:53:21;;;;;;;;;;;;;;;;;;5333267;26;19948;-71
2024/04/10 08:55:46;;;;;;;;;;;;;;;;;;5331442;26;20004;-71
2024/04/10 08:58:12;;;;;;;;;;;;;;;;;;5331092;26;19934;-69
2024/04/10 09:00:40;;;;;;;;;;;;;;;;;;5332690;26;19937;-70
2024/04/10 09:03:05;;;;;;;;;;;;;;;;;;5326972;26;19961;-70
2024/04/10 09:05:30;;;;;;;;;;;;;;;;;;5330631;26;20315;-71
2024/04/10 09:07:56;;;;;;;;;;;;;;;;;;5333572;26;19934;-70
2024/04/10 09:10:26;;;;;;;;;;;;;;;;;;5332069;26;19941;-72
2024/04/10 09:12:52;;;;;;;;;;;;;;;;;;5333725;26;19941;-74
2024/04/10 09:15:19;;;;;;;;;;;;;;;;;;5326766;26;20486;-68
2024/04/10 09:17:44;;;;;;;;;;;;;;;;;;5354988;26;19930;-70
2024/04/10 09:20:12;;;;;;;;;;;;;;;;;;5330143;26;20619;-71
2024/04/10 09:22:37;;;;;;;;;;;;;;;;;;5330586;26;19938;-74
2024/04/10 09:25:02;;;;;;;;;;;;;;;;;;5332955;26;20562;-71
2024/04/10 09:27:29;;;;;;;;;;;;;;;;;;5342000;26;20028;-72
2024/04/10 09:29:54;;;;;;;;;;;;;;;;;;5332625;26;19937;-72
2024/04/10 09:32:20;;;;;;;;;;;;;;;;;;5332015;26;19929;-71
2024/04/10 09:34:46;;;;;;;;;;;;;;;;;;5326741;26;19931;-72
2024/04/10 09:37:13;;;;;;;;;;;;;;;;;;5332974;26;20008;-70
2024/04/10 09:39:40;;;;;;;;;;;;;;;;;;5328392;26;19937;-71
2024/04/10 09:42:06;;;;;;;;;;;;;;;;;;5332405;26;19969;-70
2024/04/10 09:44:31;;;;;;;;;;;;;;;;;;5338213;26;19945;-72
2024/04/10 09:46:57;;;;;;;;;;;;;;;;;;5331988;26;20006;-69
2024/04/10 09:49:26;;;;;;;;;;;;;;;;;;5329039;26;19930;-68
2024/04/10 09:51:52;;;;;;;;;;;;;;;;;;5334718;26;19940;-70
2024/04/10 09:54:20;;;;;;;;;;;;;;;;;;5334356;26;19948;-70
2024/04/10 09:56:45;;;;;;;;;;;;;;;;;;5334814;26;19930;-70
2024/04/10 09:59:10;;;;;;;;;;;;;;;;;;5309601;26;20326;-70
2024/04/10 10:01:40;;;;;;;;;;;;;;;;;;5312869;26;19937;-71
2024/04/10 10:04:09;;;;;;;;;;;;;;;;;;5328164;26;20045;-70
2024/04/10 10:06:34;;;;;;;;;;;;;;;;;;5326918;26;19937;-69
2024/04/10 10:09:00;;;;;;;;;;;;;;;;;;5333302;26;19937;-67
2024/04/10 10:11:28;;;;;;;;;;;;;;;;;;5334791;26;20107;-75
2024/04/10 10:13:53;;;;;;;;;;;;;;;;;;5330162;26;20270;-68
2024/04/10 10:16:19;;;;;;;;;;;;;;;;;;5327627;26;19936;-68
2024/04/10 10:18:44;;;;;;;;;;;;;;;;;;5328391;26;19930;-68
2024/04/10 10:21:09;;;;;;;;;;;;;;;;;;5328881;26;19938;-68
2024/04/10 10:23:34;;;;;;;;;;;;;;;;;;5330364;26;20055;-69
2024/04/10 10:26:00;;;;;;;;;;;;;;;;;;5333288;26;20033;-69
2024/04/10 10:28:29;;;;;;;;;;;;;;;;;;5321342;26;20527;-68
2024/04/10 10:30:54;;;;;;;;;;;;;;;;;;5320397;26;19937;-71
2024/04/10 10:33:20;;;;;;;;;;;;;;;;;;5329320;26;19952;-69
2024/04/10 10:35:47;;;;;;;;;;;;;;;;;;5331115;26;19942;-68
2024/04/10 10:38:12;;;;;;;;;;;;;;;;;;5332327;26;19930;-71
2024/04/10 10:40:40;;;;;;;;;;;;;;;;;;5333989;26;20120;-70
2024/04/10 10:43:10;;;;;;;;;;;;;;;;;;5325709;26;20577;-70
2024/04/10 10:45:35;;;;;;;;;;;;;;;;;;5328142;26;19937;-72
2024/04/10 10:48:03;;;;;;;;;;;;;;;;;;5333387;26;19942;-71
2024/04/10 10:50:28;;;;;;;;;;;;;;;;;;5349116;26;19966;-71
2024/04/10 10:52:54;;;;;;;;;;;;;;;;;;5333501;26;20036;-70
2024/04/10 10:55:22;;;;;;;;;;;;;;;;;;5331383;26;19938;-72
2024/04/10 10:57:47;;;;;;;;;;;;;;;;;;5331366;26;19945;-71
2024/04/10 11:00:12;;;;;;;;;;;;;;;;;;5338115;26;19997;-69
2024/04/10 11:02:38;;;;;;;;;;;;;;;;;;5341213;26;19988;-72
2024/04/10 11:05:05;;;;;;;;;;;;;;;;;;5331430;26;19942;-73
2024/04/10 11:07:33;;;;;;;;;;;;;;;;;;5329943;26;19930;-72
2024/04/10 11:10:01;;;;;;;;;;;;;;;;;;5325218;26;20948;-72
2024/04/10 11:12:26;;;;;;;;;;;;;;;;;;5306443;26;19930;-74
2024/04/10 11:14:54;;;;;;;;;;;;;;;;;;5327002;26;20282;-72
2024/04/10 11:17:20;;;;;;;;;;;;;;;;;;5356629;26;20060;-71
2024/04/10 11:19:46;;;;;;;;;;;;;;;;;;5344309;26;20001;-70
2024/04/10 11:22:11;;;;;;;;;;;;;;;;;;5335320;26;20158;-72
2024/04/10 11:24:39;;;;;;;;;;;;;;;;;;5304051;26;19937;-74
2024/04/10 11:27:07;;;;;;;;;;;;;;;;;;5339932;26;20711;-73
2024/04/10 11:29:37;;;;;;;;;;;;;;;;;;5331332;26;19946;-74
2024/04/10 11:32:05;;;;;;;;;;;;;;;;;;5336965;26;20478;-72
2024/04/10 11:34:30;;;;;;;;;;;;;;;;;;5333856;26;20227;-69
2024/04/10 11:36:56;;;;;;;;;;;;;;;;;;5331317;26;20032;-73
2024/04/10 11:39:21;;;;;;;;;;;;;;;;;;5334386;26;20700;-73
2024/04/10 11:41:49;;;;;;;;;;;;;;;;;;5331462;26;19930;-71
2024/04/10 11:44:14;;;;;;;;;;;;;;;;;;5329927;26;19962;-72
2024/04/10 11:46:47;;;;;;;;;;;;;;;;;;5334920;26;19948;-72
2024/04/10 11:49:12;;;;;;;;;;;;;;;;;;5333177;26;20388;-70
2024/04/10 11:51:37;;;;;;;;;;;;;;;;;;5316435;26;19945;-70
2024/04/10 11:54:03;;;;;;;;;;;;;;;;;;5332940;26;20369;-73
2024/04/10 11:56:31;;;;;;;;;;;;;;;;;;5332733;26;19938;-73
2024/04/10 11:58:59;;;;;;;;;;;;;;;;;;5329467;26;20020;-72
2024/04/10 12:01:24;;;;;;;;;;;;;;;;;;5334267;26;19941;-69
2024/04/10 12:03:49;;;;;;;;;;;;;;;;;;5330033;26;20437;-74
2024/04/10 12:06:15;;;;;;;;;;;;;;;;;;5331941;26;19929;-71
2024/04/10 12:08:40;;;;;;;;;;;;;;;;;;5339503;26;19934;-71
2024/04/10 12:11:05;;;;;;;;;;;;;;;;;;5308913;26;20033;-69
2024/04/10 12:13:38;;;;;;;;;;;;;;;;;;5334394;26;19929;-71
2024/04/10 12:16:04;;;;;;;;;;;;;;;;;;5334744;26;19935;-72
2024/04/10 12:18:29;;;;;;;;;;;;;;;;;;5339232;26;19946;-74
2024/04/10 12:20:54;;;;;;;;;;;;;;;;;;5329676;26;20041;-71
2024/04/10 12:23:22;;;;;;;;;;;;;;;;;;5336168;26;20567;-68
2024/04/10 12:25:50;;;;;;;;;;;;;;;;;;5334383;26;19938;-72
2024/04/10 12:28:16;;;;;;;;;;;;;;;;;;5334235;26;20031;-72
2024/04/10 12:30:41;;;;;;;;;;;;;;;;;;5330239;26;20006;-74
2024/04/10 12:33:06;;;;;;;;;;;;;;;;;;5345196;26;19946;-72
2024/04/10 12:38:19;;;;;;;;;;;;;;;;;;5334924;26;19943;-73
2024/04/10 12:40:45;;;;;;;;;;;;;;;;;;5331733;26;19938;-72
2024/04/10 12:43:13;;;;;;;;;;;;;;;;;;5331303;26;20000;-71
2024/04/10 12:45:38;;;;;;;;;;;;;;;;;;5341799;26;20367;-72
2024/04/10 12:48:05;;;;;;;;;;;;;;;;;;5333536;26;20026;-70
2024/04/10 12:50:31;;;;;;;;;;;;;;;;;;5328594;26;20011;-72
2024/04/10 12:52:59;;;;;;;;;;;;;;;;;;5333234;26;19934;-71
2024/04/10 12:55:24;;;;;;;;;;;;;;;;;;5332625;26;19960;-70
2024/04/10 12:57:50;;;;;;;;;;;;;;;;;;5335621;26;20338;-72
2024/04/10 13:00:18;;;;;;;;;;;;;;;;;;5331802;26;20035;-68
2024/04/10 13:02:46;;;;;;;;;;;;;;;;;;5336149;26;20357;-71
2024/04/10 13:05:11;;;;;;;;;;;;;;;;;;5336282;26;20379;-70
2024/04/10 13:07:37;;;;;;;;;;;;;;;;;;5333008;26;19930;-72
2024/04/10 13:10:05;;;;;;;;;;;;;;;;;;5330210;26;19938;-71
2024/04/10 13:12:30;;;;;;;;;;;;;;;;;;5332814;26;20008;-69
2024/04/10 13:14:58;;;;;;;;;;;;;;;;;;5328595;26;19930;-75
2024/04/10 13:17:24;;;;;;;;;;;;;;;;;;5328825;26;19952;-71
2024/04/10 13:19:52;;;;;;;;;;;;;;;;;;5334395;26;19944;-72
2024/04/10 13:22:18;;;;;;;;;;;;;;;;;;5343683;26;19938;-71
2024/04/10 13:24:46;;;;;;;;;;;;;;;;;;5331922;26;19945;-73
2024/04/10 13:27:13;;;;;;;;;;;;;;;;;;5329958;26;21196;-72
2024/04/10 13:29:38;;;;;;;;;;;;;;;;;;5329655;26;20209;-70
2024/04/10 13:32:13;;;;;;;;;;;;;;;;;;5332431;26;20586;-71
2024/04/10 13:34:43;;;;;;;;;;;;;;;;;;5296136;26;20019;-70
2024/04/10 13:37:08;;;;;;;;;;;;;;;;;;5331424;26;20324;-70
2024/04/10 13:39:34;;;;;;;;;;;;;;;;;;5328137;26;19946;-71
2024/04/10 13:41:59;;;;;;;;;;;;;;;;;;5328187;26;19944;-70
2024/04/10 13:44:25;;;;;;;;;;;;;;;;;;5332464;26;20440;-69
2024/04/10 13:46:50;;;;;;;;;;;;;;;;;;5329310;26;20073;-69
2024/04/10 13:49:16;;;;;;;;;;;;;;;;;;5328283;26;20641;-68
2024/04/10 13:51:43;;;;;;;;;;;;;;;;;;5330254;26;19969;-67
2024/04/10 13:54:08;;;;;;;;;;;;;;;;;;5332957;26;19937;-74
2024/04/10 13:56:34;;;;;;;;;;;;;;;;;;5312228;26;20277;-70
2024/04/10 14:00:35;;;;;;;;;;;;;;;;;;5494230;25;1967587;-71
2024/04/10 14:03:01;;;;;;;;;;;;;;;;;;5536062;25;19927;-71
2024/04/10 14:05:29;;;;;;;;;;;;;;;;;;5530875;25;19943;-68
2024/04/10 14:07:54;;;;;;;;;;;;;;;;;;5506092;25;19946;-71
2024/04/10 14:10:22;;;;;;;;;;;;;;;;;;5503068;25;19971;-70
2024/04/10 14:12:47;;;;;;;;;;;;;;;;;;5539476;25;19934;-70
2024/04/10 14:15:13;;;;;;;;;;;;;;;;;;5537404;25;19927;-71
2024/04/10 14:17:38;;;;;;;;;;;;;;;;;;5530718;25;19927;-70
2024/04/10 14:20:05;;;;;;;;;;;;;;;;;;5537793;25;19931;-68
2024/04/10 14:22:30;;;;;;;;;;;;;;;;;;5539454;25;19927;-69
2024/04/10 14:24:56;;;;;;;;;;;;;;;;;;5541692;25;19927;-70
2024/04/10 14:27:21;;;;;;;;;;;;;;;;;;5517046;25;19932;-69
2024/04/10 14:29:47;;;;;;;;;;;;;;;;;;5537921;25;19946;-68
2024/04/10 14:32:15;;;;;;;;;;;;;;;;;;5518306;25;19963;-70
2024/04/10 14:34:40;;;;;;;;;;;;;;;;;;5537521;25;19935;-72
2024/04/10 14:37:07;;;;;;;;;;;;;;;;;;5536687;25;19933;-69
2024/04/10 14:39:32;;;;;;;;;;;;;;;;;;5535837;25;19942;-73
2024/04/10 14:42:00;;;;;;;;;;;;;;;;;;5534026;25;19939;-71
2024/04/10 14:44:39;;;;;;;;;;;;;;;;;;5534379;25;19935;-69
2024/04/10 14:47:07;;;;;;;;;;;;;;;;;;5535667;25;20082;-69
2024/04/10 14:49:32;;;;;;;;;;;;;;;;;;5535906;25;19935;-71
2024/04/10 14:51:58;;;;;;;;;;;;;;;;;;5538197;25;19977;-70
2024/04/10 14:54:23;;;;;;;;;;;;;;;;;;5533217;25;20033;-69
2024/04/10 14:56:48;;;;;;;;;;;;;;;;;;5536293;25;20476;-69
2024/04/10 14:59:16;;;;;;;;;;;;;;;;;;5536036;25;19936;-71
2024/04/10 15:01:42;;;;;;;;;;;;;;;;;;5507213;25;19954;-69
2024/04/10 15:04:07;;;;;;;;;;;;;;;;;;5503230;25;20712;-71
2024/04/10 15:06:36;;;;;;;;;;;;;;;;;;5538409;25;20003;-68
2024/04/10 15:09:05;;;;;;;;;;;;;;;;;;5502709;25;19927;-69
2024/04/10 15:11:32;;;;;;;;;;;;;;;;;;5490221;25;19967;-69
2024/04/10 15:14:00;;;;;;;;;;;;;;;;;;5521432;25;19959;-68
2024/04/10 15:16:28;;;;;;;;;;;;;;;;;;5496259;25;19977;-69
2024/04/10 15:19:02;;;;;;;;;;;;;;;;;;5496668;25;19961;-70
2024/04/10 15:21:28;;;;;;;;;;;;;;;;;;5494919;25;19938;-72
2024/04/10 15:23:56;;;;;;;;;;;;;;;;;;5458973;25;20035;-69
2024/04/10 15:26:21;;;;;;;;;;;;;;;;;;5488014;25;19935;-70
2024/04/10 15:28:47;;;;;;;;;;;;;;;;;;5490056;25;19934;-68
2024/04/10 15:31:12;;;;;;;;;;;;;;;;;;5493815;25;19996;-68
2024/04/10 15:33:40;;;;;;;;;;;;;;;;;;5467717;25;19928;-68
2024/04/10 15:36:11;;;;;;;;;;;;;;;;;;5470075;25;19926;-71
2024/04/10 15:38:39;;;;;;;;;;;;;;;;;;5486482;25;20006;-73
2024/04/10 15:41:07;;;;;;;;;;;;;;;;;;5495773;25;19997;-69
2024/04/10 15:43:32;;;;;;;;;;;;;;;;;;5465567;25;20339;-68
2024/04/10 15:45:57;;;;;;;;;;;;;;;;;;5486439;25;19989;-70
2024/04/10 15:48:23;;;;;;;;;;;;;;;;;;5491872;25;19927;-69
2024/04/10 15:50:48;;;;;;;;;;;;;;;;;;5518791;25;19999;-68
2024/04/10 15:53:13;;;;;;;;;;;;;;;;;;5518359;25;19935;-69
2024/04/10 15:55:38;;;;;;;;;;;;;;;;;;5491455;25;19946;-69
2024/04/10 15:58:04;;;;;;;;;;;;;;;;;;5519885;25;19937;-69
2024/04/10 16:00:29;;;;;;;;;;;;;;;;;;5520877;25;20002;-68
2024/04/10 16:02:54;;;;;;;;;;;;;;;;;;5519489;25;19934;-68
2024/04/10 16:05:27;;;;;;;;;;;;;;;;;;5519419;25;19992;-68
2024/04/10 16:07:53;;;;;;;;;;;;;;;;;;5491355;25;21702;-68
2024/04/10 16:10:18;;;;;;;;;;;;;;;;;;5495429;25;19975;-70
2024/04/10 16:12:44;;;;;;;;;;;;;;;;;;5520207;25;19988;-69
2024/04/10 16:15:09;;;;;;;;;;;;;;;;;;5518189;25;19997;-69
2024/04/10 16:17:34;;;;;;;;;;;;;;;;;;5490691;25;19942;-68
2024/04/10 16:20:03;;;;;;;;;;;;;;;;;;5514688;25;19945;-68
2024/04/10 16:22:31;;;;;;;;;;;;;;;;;;5483265;25;20501;-68
2024/04/10 16:24:59;;;;;;;;;;;;;;;;;;5518582;25;19962;-67
2024/04/10 16:27:24;;;;;;;;;;;;;;;;;;5496630;25;19927;-68
2024/04/10 16:29:49;;;;;;;;;;;;;;;;;;5487803;25;19933;-67
2024/04/10 16:32:18;;;;;;;;;;;;;;;;;;5518827;25;19946;-70
2024/04/10 16:34:44;;;;;;;;;;;;;;;;;;5490722;25;19935;-68
2024/04/10 16:37:12;;;;;;;;;;;;;;;;;;5490127;25;20338;-67
2024/04/10 16:39:40;;;;;;;;;;;;;;;;;;5518460;25;19950;-68
2024/04/10 16:42:05;;;;;;;;;;;;;;;;;;5487208;25;20432;-67
2024/04/10 16:44:33;;;;;;;;;;;;;;;;;;5459622;25;20299;-68
2024/04/10 16:47:00;;;;;;;;;;;;;;;;;;5516378;25;19938;-68
2024/04/10 16:49:28;;;;;;;;;;;;;;;;;;5487582;25;19946;-66
2024/04/10 16:51:57;;;;;;;;;;;;;;;;;;5492537;25;20019;-66
2024/04/10 16:54:28;;;;;;;;;;;;;;;;;;5517989;25;19934;-68
2024/04/10 16:56:53;;;;;;;;;;;;;;;;;;5487312;25;20266;-67
2024/04/10 16:59:18;;;;;;;;;;;;;;;;;;5519338;25;19960;-68